Etusivu
METAR-TAF:

METAR-TAF

Lentoasemat :

Sandane, Norja

Leveyspiiri: 61-50N, Pituuspiiri: 006-07E, korkeus merenpinnasta: 6 m

Tämänhetkinen sää

Tämä raportti tehtiin 1 tunti ja 24 minuuttia sitten, kello 05.20 UTC
Tuuli 2 kn eri suunnista
Lämpötila 11°C
Kosteus 87%
Ilmanpaine 1012 hPa
Näkyvyys 10 km tai enemmän
Muutamia pilviä 5500 ft:n korkeudessa

METAR: ENSD 240520Z VRB02KT 9999 FEW055 11/09 Q1012 RMK WIND 1138FT 07002KT

Aika: 08:44 (06:44 UTC)


TAF: puuttuu

Säähavainnot ja -ennusteet yli 4000 lentoasemalta (METAR- ja TAF-raportit).

Käytössä olevat sääasemat on merkitty karttaan keltaisilla ja punaisilla pisteillä.

Aseta hiiri pisteen päälle nähdäksesi sääaseman nimen.

Klikkaa sitten nähdäksesi säähavainnot ja -ennusteet.

Kartan vaihtaminen: klikkaa mustalla rastilla varustettuja vihreitä pisteitä, niin voit zoomata sisään; viivalla varustettua vihreää pistettä, niin voit zoomata ulos tai vihreitä nuolia, niin pääset viereisille kartoille.


METAR-TAF: